createdAt,value
2024-04-09T00:00:36.422Z,75.46
2024-04-09T00:01:36.404Z,86.64
2024-04-09T00:02:36.544Z,86.20
2024-04-09T00:03:36.721Z,86.69
2024-04-09T00:04:36.932Z,78.55
2024-04-09T00:05:36.795Z,70.67
2024-04-09T00:06:37.006Z,85.39
2024-04-09T00:07:36.992Z,82.51
2024-04-09T00:08:37.086Z,86.54
2024-04-09T00:09:37.254Z,94.48
2024-04-09T00:10:37.362Z,104.94
2024-04-09T00:11:37.532Z,137.19
2024-04-09T00:12:37.599Z,112.26
2024-04-09T00:13:37.576Z,114.76
2024-04-09T00:14:37.679Z,122.28
2024-04-09T00:15:38.045Z,111.38
2024-04-09T00:16:37.891Z,101.08
2024-04-09T00:17:38.131Z,102.40
2024-04-09T00:18:38.195Z,113.30
2024-04-09T00:19:38.216Z,115.48
2024-04-09T00:20:38.273Z,117.46
2024-04-09T00:21:38.579Z,108.63
2024-04-09T00:22:38.549Z,104.77
2024-04-09T00:23:38.628Z,114.40
2024-04-09T00:24:38.824Z,124.80
2024-04-09T00:25:38.856Z,128.72
2024-04-09T00:26:38.939Z,126.70
2024-04-09T00:27:40.829Z,134.43
2024-04-09T00:28:39.046Z,135.74
2024-04-09T00:29:39.060Z,118.04
2024-04-09T00:30:39.106Z,121.05
2024-04-09T00:31:39.048Z,121.19
2024-04-09T00:32:39.181Z,117.27
2024-04-09T00:33:39.197Z,110.39
2024-04-09T00:34:39.177Z,114.90
2024-04-09T00:35:39.057Z,123.20
2024-04-09T00:36:39.099Z,109.92
2024-04-09T00:37:39.091Z,110.34
2024-04-09T00:38:39.060Z,108.30
2024-04-09T00:39:39.187Z,103.59
2024-04-09T00:40:39.083Z,114.38
2024-04-09T00:41:39.084Z,123.95
2024-04-09T00:42:39.107Z,125.79
2024-04-09T00:43:39.072Z,134.79
2024-04-09T00:44:39.081Z,144.31
2024-04-09T00:45:39.312Z,147.38
2024-04-09T00:46:39.094Z,151.27
2024-04-09T00:47:39.218Z,138.32
2024-04-09T00:48:39.526Z,136.62
2024-04-09T00:49:39.087Z,112.31
2024-04-09T00:50:39.091Z,103.97
2024-04-09T00:51:39.128Z,110.35
2024-04-09T00:52:39.114Z,119.07
2024-04-09T00:53:39.115Z,118.81
2024-04-09T00:54:39.143Z,128.49
2024-04-09T00:55:39.081Z,120.57
2024-04-09T00:56:39.156Z,97.36
2024-04-09T00:57:39.246Z,90.35
2024-04-09T00:58:39.346Z,87.91
2024-04-09T00:59:39.468Z,93.46
2024-04-09T01:00:39.678Z,95.89
2024-04-09T01:01:39.684Z,92.55
2024-04-09T01:02:39.797Z,99.89
2024-04-09T01:03:40.102Z,100.05
2024-04-09T01:04:40.160Z,106.64
2024-04-09T01:05:40.062Z,114.74
2024-04-09T01:06:40.209Z,114.22
2024-04-09T01:07:41.045Z,105.28
2024-04-09T01:08:40.382Z,108.60
2024-04-09T01:09:40.573Z,113.29
2024-04-09T01:10:40.569Z,123.53
2024-04-09T01:11:40.677Z,129.55
2024-04-09T01:12:40.774Z,115.32
2024-04-09T01:13:40.892Z,114.85
2024-04-09T01:14:41.003Z,80.82
2024-04-09T01:15:41.190Z,68.20
2024-04-09T01:16:41.200Z,88.64
2024-04-09T01:17:41.373Z,102.40
2024-04-09T01:18:41.578Z,117.37
2024-04-09T01:19:41.540Z,124.54
2024-04-09T01:20:41.616Z,121.93
2024-04-09T01:21:41.732Z,101.23
2024-04-09T01:22:41.799Z,102.33
2024-04-09T01:23:41.903Z,104.94
2024-04-09T01:24:42.036Z,103.71
2024-04-09T01:25:42.125Z,89.62
2024-04-09T01:26:42.211Z,75.50
2024-04-09T01:27:42.284Z,64.61
2024-04-09T01:28:42.400Z,73.21
2024-04-09T01:29:42.488Z,81.72
2024-04-09T01:30:42.665Z,71.29
2024-04-09T01:31:42.699Z,66.84
2024-04-09T01:32:42.944Z,65.77
2024-04-09T01:33:42.958Z,51.51
2024-04-09T01:34:43.037Z,44.40
2024-04-09T01:35:43.087Z,55.30
2024-04-09T01:36:43.175Z,62.55
2024-04-09T01:37:43.285Z,73.46
2024-04-09T01:38:43.383Z,80.96
2024-04-09T01:39:43.481Z,91.85
2024-04-09T01:40:43.592Z,75.09
2024-04-09T01:41:43.688Z,76.03
2024-04-09T01:42:43.827Z,73.18
2024-04-09T01:43:43.892Z,81.28
2024-04-09T01:44:43.965Z,80.16
2024-04-09T01:45:44.602Z,70.33
2024-04-09T01:46:44.204Z,72.20
2024-04-09T01:47:44.333Z,74.73
2024-04-09T01:48:44.446Z,78.30
2024-04-09T01:49:44.467Z,74.90
2024-04-09T01:50:44.587Z,91.79
2024-04-09T01:51:44.713Z,89.37
2024-04-09T01:52:44.825Z,90.74
2024-04-09T01:54:01.554Z,50.00
2024-04-09T01:55:01.519Z,50.00
2024-04-09T01:56:01.542Z,50.00
2024-04-09T01:57:01.596Z,50.00
2024-04-09T01:58:01.599Z,50.00
2024-04-09T01:59:01.501Z,49.76
2024-04-09T02:00:01.675Z,52.88
2024-04-09T02:01:01.582Z,58.79
2024-04-09T02:02:01.689Z,53.50
2024-04-09T02:03:01.665Z,61.97
2024-04-09T02:04:01.565Z,56.54
2024-04-09T02:05:01.535Z,62.80
2024-04-09T02:06:01.687Z,58.04
2024-04-09T02:07:01.510Z,51.24
2024-04-09T02:08:01.600Z,53.33
2024-04-09T02:09:01.681Z,55.47
2024-04-09T02:10:01.541Z,63.44
2024-04-09T02:11:01.529Z,59.48
2024-04-09T02:12:01.809Z,56.64
2024-04-09T02:13:01.714Z,68.09
2024-04-09T02:14:01.643Z,64.34
2024-04-09T02:15:01.602Z,68.74
2024-04-09T02:16:01.665Z,64.40
2024-04-09T02:17:01.736Z,60.18
2024-04-09T02:18:01.779Z,66.70
2024-04-09T02:19:01.574Z,53.46
2024-04-09T02:20:01.556Z,55.37
2024-04-09T02:21:01.640Z,49.03
2024-04-09T02:22:01.575Z,51.18
2024-04-09T02:23:01.608Z,60.44
2024-04-09T02:24:01.691Z,69.91
2024-04-09T02:25:01.750Z,76.18
2024-04-09T02:26:01.625Z,67.54
2024-04-09T02:27:01.623Z,59.65
2024-04-09T02:28:01.584Z,50.00
2024-04-09T02:29:01.690Z,47.59
2024-04-09T02:30:01.667Z,50.00
2024-04-09T02:31:01.606Z,55.03
2024-04-09T02:32:01.771Z,57.29
2024-04-09T02:33:01.744Z,50.26
2024-04-09T02:34:01.772Z,57.19
2024-04-09T02:35:01.605Z,61.55
2024-04-09T02:36:01.597Z,78.10
2024-04-09T02:37:01.639Z,94.28
2024-04-09T02:38:01.615Z,109.09
2024-04-09T02:39:01.625Z,116.20
2024-04-09T02:40:01.800Z,117.12
2024-04-09T02:41:01.790Z,114.91
2024-04-09T02:42:01.907Z,122.12
2024-04-09T02:43:01.937Z,120.13
2024-04-09T02:44:02.008Z,129.38
2024-04-09T02:45:02.179Z,134.63
2024-04-09T02:46:02.228Z,125.65
2024-04-09T02:47:02.391Z,129.86
2024-04-09T02:48:02.540Z,110.40
2024-04-09T02:49:02.663Z,115.17
2024-04-09T02:50:02.607Z,117.89
2024-04-09T02:51:02.723Z,119.34
2024-04-09T02:52:02.808Z,97.71
2024-04-09T02:53:02.931Z,97.67
2024-04-09T02:54:03.037Z,88.75
2024-04-09T02:55:03.129Z,84.61
2024-04-09T02:56:03.182Z,81.92
2024-04-09T02:57:03.275Z,75.62
2024-04-09T02:58:03.376Z,82.96
2024-04-09T02:59:03.493Z,84.99
2024-04-09T03:00:03.612Z,90.36
2024-04-09T03:01:03.723Z,90.06
2024-04-09T03:02:03.808Z,95.62
2024-04-09T03:03:03.893Z,102.86
2024-04-09T03:04:04.115Z,98.87
2024-04-09T03:05:04.091Z,98.66
2024-04-09T03:06:04.260Z,117.28
2024-04-09T03:07:04.319Z,125.01
2024-04-09T03:08:04.470Z,132.78
2024-04-09T03:09:04.580Z,137.91
2024-04-09T03:10:04.664Z,140.34
2024-04-09T03:11:04.809Z,121.04
2024-04-09T03:12:04.857Z,126.55
2024-04-09T03:13:05.006Z,130.09
2024-04-09T03:14:05.085Z,130.16
2024-04-09T03:15:05.268Z,136.05
2024-04-09T03:16:05.301Z,133.67
2024-04-09T03:17:05.370Z,127.54
2024-04-09T03:18:05.568Z,118.58
2024-04-09T03:19:05.562Z,111.75
2024-04-09T03:20:05.669Z,103.48
2024-04-09T03:21:05.726Z,103.68
2024-04-09T03:22:05.852Z,103.30
2024-04-09T03:23:05.913Z,100.16
2024-04-09T03:24:06.071Z,108.46
2024-04-09T03:25:06.069Z,112.73
2024-04-09T03:26:06.193Z,97.36
2024-04-09T03:27:06.330Z,100.06
2024-04-09T03:28:06.397Z,89.62
2024-04-09T03:29:06.462Z,82.85
2024-04-09T03:30:06.682Z,97.94
2024-04-09T03:31:06.629Z,100.44
2024-04-09T03:32:06.758Z,101.71
2024-04-09T03:33:23.628Z,50.00
2024-04-09T03:34:23.656Z,50.00
2024-04-09T03:35:23.412Z,50.00
2024-04-09T03:36:23.442Z,50.00
2024-04-09T03:37:23.426Z,50.00
2024-04-09T03:38:23.428Z,50.85
2024-04-09T03:39:23.469Z,50.80
2024-04-09T03:40:23.420Z,57.38
2024-04-09T03:41:23.439Z,57.43
2024-04-09T03:42:23.437Z,61.28
2024-04-09T03:43:23.432Z,54.42
2024-04-09T03:44:23.421Z,50.22
2024-04-09T03:45:23.450Z,56.35
2024-04-09T03:46:23.453Z,70.76
2024-04-09T03:47:23.495Z,53.48
2024-04-09T03:48:23.618Z,57.53
2024-04-09T03:49:23.620Z,58.49
2024-04-09T03:50:23.483Z,59.06
2024-04-09T03:51:23.594Z,82.77
2024-04-09T03:52:23.512Z,77.00
2024-04-09T03:53:23.500Z,69.74
2024-04-09T03:54:23.551Z,72.36
2024-04-09T03:55:24.065Z,75.55
2024-04-09T03:56:23.498Z,74.22
2024-04-09T03:57:23.503Z,75.70
2024-04-09T03:58:23.471Z,68.18
2024-04-09T03:59:23.476Z,57.77
2024-04-09T04:00:23.594Z,64.48
2024-04-09T04:01:23.541Z,61.82
2024-04-09T04:02:23.519Z,62.98
2024-04-09T04:03:23.638Z,72.97
2024-04-09T04:04:23.662Z,76.11
2024-04-09T04:05:23.532Z,86.89
2024-04-09T04:06:23.553Z,108.53
2024-04-09T04:07:23.524Z,111.67
2024-04-09T04:08:23.579Z,117.79
2024-04-09T04:09:23.563Z,107.60
2024-04-09T04:10:23.549Z,96.89
2024-04-09T04:11:23.627Z,117.72
2024-04-09T04:12:23.645Z,140.15
2024-04-09T04:13:23.527Z,156.61
2024-04-09T04:14:23.536Z,159.18
2024-04-09T04:15:23.589Z,160.99
2024-04-09T04:16:23.556Z,150.20
2024-04-09T04:17:23.620Z,153.43
2024-04-09T04:18:23.617Z,166.38
2024-04-09T04:19:23.551Z,171.25
2024-04-09T04:20:23.595Z,172.39
2024-04-09T04:21:23.721Z,171.70
2024-04-09T04:22:23.800Z,172.57
2024-04-09T04:23:23.903Z,173.44
2024-04-09T04:24:24.054Z,184.40
2024-04-09T04:25:24.104Z,185.18
2024-04-09T04:26:24.196Z,188.38
2024-04-09T04:27:24.305Z,199.57
2024-04-09T04:28:24.372Z,189.67
2024-04-09T04:29:24.437Z,186.80
2024-04-09T04:30:24.599Z,181.66
2024-04-09T04:31:24.653Z,177.16
2024-04-09T04:32:32.247Z,50.00
2024-04-09T04:33:32.386Z,50.00
2024-04-09T04:34:32.290Z,50.00
2024-04-09T04:35:32.315Z,50.00
2024-04-09T04:36:32.488Z,50.00
2024-04-09T04:37:32.507Z,51.08
2024-04-09T04:38:32.583Z,54.76
2024-04-09T04:39:32.692Z,52.07
2024-04-09T04:40:32.801Z,52.32
2024-04-09T04:41:32.890Z,71.50
2024-04-09T04:42:33.066Z,75.49
2024-04-09T04:43:33.096Z,67.55
2024-04-09T04:44:33.181Z,69.32
2024-04-09T04:45:33.316Z,74.26
2024-04-09T04:46:33.379Z,79.24
2024-04-09T04:47:33.598Z,78.15
2024-04-09T04:48:33.650Z,64.97
2024-04-09T04:49:33.822Z,74.89
2024-04-09T04:50:33.745Z,78.36
2024-04-09T04:51:33.850Z,84.53
2024-04-09T04:52:33.873Z,82.39
2024-04-09T04:53:34.017Z,90.97
2024-04-09T04:54:34.163Z,99.79
2024-04-09T04:55:34.160Z,115.10
2024-04-09T04:56:34.255Z,124.27
2024-04-09T04:57:34.375Z,138.28
2024-04-09T04:58:34.457Z,147.43
2024-04-09T04:59:34.527Z,156.74
2024-04-09T05:00:34.633Z,161.80
2024-04-09T05:01:34.738Z,170.16
2024-04-09T05:02:34.852Z,174.45
2024-04-09T05:03:35.026Z,178.25
2024-04-09T05:04:35.186Z,176.28
2024-04-09T05:05:35.121Z,172.86
2024-04-09T05:06:35.334Z,176.56
2024-04-09T05:07:35.374Z,175.50
2024-04-09T05:08:35.465Z,178.71
2024-04-09T05:09:35.680Z,181.27
2024-04-09T05:10:35.686Z,185.75
2024-04-09T05:11:35.802Z,192.78
2024-04-09T05:12:35.929Z,194.03
2024-04-09T05:13:35.997Z,195.33
2024-04-09T05:14:36.046Z,189.16
2024-04-09T05:15:36.221Z,189.26
2024-04-09T05:16:36.265Z,195.80
2024-04-09T05:17:36.412Z,199.89
2024-04-09T05:18:36.702Z,200.79
2024-04-09T05:19:36.668Z,200.00
2024-04-09T05:20:36.691Z,199.17
2024-04-09T05:21:36.850Z,195.27
2024-04-09T05:22:36.957Z,198.51
2024-04-09T05:23:37.011Z,200.00
2024-04-09T05:24:37.205Z,194.98
2024-04-09T05:25:37.231Z,195.08
2024-04-09T05:26:37.348Z,198.80
2024-04-09T05:27:37.479Z,198.68
2024-04-09T05:28:37.607Z,197.20
2024-04-09T05:29:37.690Z,196.30
2024-04-09T05:30:37.782Z,199.68
2024-04-09T05:31:37.871Z,199.66
2024-04-09T05:32:38.167Z,198.43
2024-04-09T05:33:38.167Z,199.96
2024-04-09T05:34:38.188Z,199.45
2024-04-09T05:35:38.288Z,196.21
2024-04-09T05:36:38.440Z,197.67
2024-04-09T05:37:38.519Z,200.00
2024-04-09T05:38:38.776Z,201.04
2024-04-09T05:39:38.768Z,200.00
2024-04-09T05:40:38.767Z,200.66
2024-04-09T05:41:38.865Z,200.38
2024-04-09T05:42:39.096Z,199.48
2024-04-09T05:43:39.095Z,198.68
2024-04-09T05:44:39.144Z,202.81
2024-04-09T05:45:39.270Z,204.96
2024-04-09T05:46:39.335Z,209.10
2024-04-09T05:47:39.485Z,206.14
2024-04-09T05:48:39.727Z,203.21
2024-04-09T05:49:39.641Z,204.30
2024-04-09T05:50:39.688Z,201.66
2024-04-09T05:51:39.897Z,200.36
2024-04-09T05:52:39.896Z,202.48
2024-04-09T05:53:39.992Z,198.05
2024-04-09T05:54:40.179Z,189.73
2024-04-09T05:55:40.164Z,161.77
2024-04-09T05:56:40.206Z,168.65
2024-04-09T05:57:40.454Z,179.26
2024-04-09T05:58:40.376Z,184.88
2024-04-09T05:59:40.467Z,181.26
2024-04-09T06:00:40.652Z,185.11
2024-04-09T06:01:40.773Z,184.32
2024-04-09T06:02:40.754Z,200.99
2024-04-09T06:03:40.918Z,203.61
2024-04-09T06:04:40.976Z,199.70
2024-04-09T06:05:41.077Z,201.70
2024-04-09T06:06:41.200Z,200.00
2024-04-09T06:07:41.274Z,199.61
2024-04-09T06:08:41.388Z,199.98
2024-04-09T06:09:41.685Z,192.22
2024-04-09T06:10:42.127Z,187.02
2024-04-09T06:11:41.622Z,186.36
2024-04-09T06:12:41.776Z,198.43
2024-04-09T06:13:41.674Z,202.59
2024-04-09T06:14:41.706Z,198.65
2024-04-09T06:15:41.824Z,200.00
2024-04-09T06:16:41.772Z,203.27
2024-04-09T06:17:41.967Z,204.62
2024-04-09T06:18:42.028Z,200.47
2024-04-09T06:19:42.036Z,198.82
2024-04-09T06:20:41.946Z,199.55
2024-04-09T06:21:41.987Z,200.41
2024-04-09T06:22:42.062Z,193.02
2024-04-09T06:23:42.197Z,193.09
2024-04-09T06:24:42.452Z,194.29
2024-04-09T06:25:42.347Z,199.08
2024-04-09T06:26:42.463Z,201.26
2024-04-09T06:27:42.594Z,200.04
2024-04-09T06:28:42.685Z,203.09
2024-04-09T06:29:42.731Z,202.67
2024-04-09T06:30:42.911Z,200.00
2024-04-09T06:31:42.966Z,196.19
2024-04-09T06:32:43.226Z,198.57
2024-04-09T06:33:43.261Z,201.29
2024-04-09T06:34:43.262Z,199.73
2024-04-09T06:35:43.379Z,198.66
2024-04-09T06:36:43.531Z,200.15
2024-04-09T06:37:43.619Z,198.09
2024-04-09T06:38:43.692Z,196.75
2024-04-09T06:39:43.950Z,198.85
2024-04-09T06:40:43.913Z,196.89
2024-04-09T06:41:44.024Z,198.48
2024-04-09T06:42:44.268Z,199.93
2024-04-09T06:43:44.216Z,201.27
2024-04-09T06:44:44.338Z,196.63
2024-04-09T06:45:44.489Z,198.68
2024-04-09T06:46:44.586Z,200.00
2024-04-09T06:47:44.766Z,190.65
2024-04-09T06:48:44.893Z,184.69
2024-04-09T06:49:45.131Z,188.08
2024-04-09T06:50:44.959Z,187.37
2024-04-09T06:51:45.105Z,191.02
2024-04-09T06:52:45.243Z,196.01
2024-04-09T06:53:45.336Z,198.88
2024-04-09T06:54:45.547Z,205.11
2024-04-09T06:55:45.528Z,199.59
2024-04-09T06:56:45.623Z,200.00
2024-04-09T06:57:45.823Z,199.30
2024-04-09T06:58:45.871Z,199.92
2024-04-09T06:59:45.935Z,200.00
2024-04-09T07:00:46.196Z,197.52
2024-04-09T07:01:46.372Z,194.68
2024-04-09T07:02:46.324Z,188.90
2024-04-09T07:03:46.491Z,191.30
2024-04-09T07:04:46.483Z,196.01
2024-04-09T07:05:46.595Z,198.72
2024-04-09T07:06:46.747Z,199.84
2024-04-09T07:07:46.788Z,199.16
2024-04-09T07:08:46.887Z,197.82
2024-04-09T07:09:47.020Z,193.02
2024-04-09T07:10:47.059Z,192.26
2024-04-09T07:11:47.283Z,195.80
2024-04-09T07:12:47.304Z,199.21
2024-04-09T07:13:47.424Z,199.96
2024-04-09T07:14:47.427Z,198.90
2024-04-09T07:15:47.612Z,200.07
2024-04-09T07:16:47.866Z,199.34
2024-04-09T07:17:47.817Z,200.00
2024-04-09T07:18:47.923Z,200.00
2024-04-09T07:19:47.942Z,199.57
2024-04-09T07:20:48.003Z,200.00
2024-04-09T07:21:48.165Z,199.98
2024-04-09T07:22:48.223Z,198.81
2024-04-09T07:23:48.338Z,199.08
2024-04-09T07:24:48.462Z,198.61
2024-04-09T07:25:48.493Z,196.20
2024-04-09T07:26:48.611Z,196.89
2024-04-09T07:27:48.673Z,196.38
2024-04-09T07:28:48.814Z,193.49
2024-04-09T07:29:48.886Z,194.17
2024-04-09T07:30:49.055Z,191.93
2024-04-09T07:31:49.091Z,188.74
2024-04-09T07:32:49.242Z,188.66
2024-04-09T07:33:49.271Z,190.77
2024-04-09T07:34:49.357Z,193.21
2024-04-09T07:35:49.469Z,196.63
2024-04-09T07:36:49.647Z,199.91
2024-04-09T07:37:49.642Z,199.79
2024-04-09T07:38:49.770Z,200.00
2024-04-09T07:39:49.896Z,200.21
2024-04-09T07:40:49.946Z,199.84
2024-04-09T07:41:50.087Z,197.92
2024-04-09T07:42:50.249Z,197.99
2024-04-09T07:43:50.280Z,193.37
2024-04-09T07:44:50.355Z,188.38
2024-04-09T07:45:50.488Z,188.02
2024-04-09T07:46:50.579Z,187.56
2024-04-09T07:47:50.890Z,187.32
2024-04-09T07:48:51.117Z,187.83
2024-04-09T07:49:52.363Z,189.17
2024-04-09T07:50:50.879Z,190.65
2024-04-09T07:51:50.961Z,191.83
2024-04-09T07:52:50.929Z,192.84
2024-04-09T07:53:50.967Z,194.27
2024-04-09T07:54:51.053Z,196.20
2024-04-09T07:55:51.018Z,196.09
2024-04-09T07:56:51.056Z,195.10
2024-04-09T07:57:51.093Z,197.32
2024-04-09T07:58:51.232Z,198.80
2024-04-09T07:59:51.339Z,199.73
2024-04-09T08:00:51.501Z,199.95
2024-04-09T08:01:51.519Z,199.76
2024-04-09T08:02:51.625Z,199.81
2024-04-09T08:03:51.886Z,199.83
2024-04-09T08:04:52.211Z,200.00
2024-04-09T08:05:51.819Z,199.88
2024-04-09T08:06:51.973Z,199.56
2024-04-09T08:07:51.982Z,199.38
2024-04-09T08:08:52.096Z,199.11
2024-04-09T08:09:52.020Z,199.02
2024-04-09T08:10:52.120Z,199.32
2024-04-09T08:11:51.997Z,199.27
2024-04-09T08:12:52.054Z,199.72
2024-04-09T08:13:52.024Z,199.74
2024-04-09T08:14:52.043Z,199.84
2024-04-09T08:15:52.120Z,199.91
2024-04-09T08:16:52.131Z,200.00
2024-04-09T08:17:52.329Z,200.00
2024-04-09T08:18:52.610Z,199.63
2024-04-09T08:19:52.499Z,199.88
2024-04-09T08:20:52.510Z,199.82
2024-04-09T08:21:52.661Z,199.92
2024-04-09T08:22:52.696Z,200.09
2024-04-09T08:23:52.796Z,199.84
2024-04-09T08:24:52.910Z,200.09
2024-04-09T08:25:53.044Z,199.64
2024-04-09T08:26:53.039Z,200.00
2024-04-09T08:27:53.226Z,198.85
2024-04-09T08:28:53.254Z,198.26
2024-04-09T08:29:53.318Z,198.49
2024-04-09T08:30:53.482Z,198.27
2024-04-09T08:31:53.525Z,197.68
2024-04-09T08:32:53.791Z,196.84
2024-04-09T08:33:53.788Z,196.61
2024-04-09T08:34:53.874Z,196.12
2024-04-09T08:35:53.871Z,194.18
2024-04-09T08:36:54.161Z,190.93
2024-04-09T08:37:54.184Z,191.59
2024-04-09T08:38:54.207Z,188.87
2024-04-09T08:39:54.387Z,187.50
2024-04-09T08:40:54.424Z,187.16
2024-04-09T08:41:54.505Z,181.17
2024-04-09T08:42:57.845Z,175.09
2024-04-09T08:43:54.589Z,173.98
2024-04-09T08:44:54.586Z,173.02
2024-04-09T08:45:54.654Z,171.79
2024-04-09T08:46:54.624Z,172.76
2024-04-09T08:47:54.676Z,174.34
2024-04-09T08:48:54.783Z,170.12
2024-04-09T08:49:57.666Z,171.03
2024-04-09T08:50:54.767Z,169.71
2024-04-09T08:51:54.816Z,171.05
2024-04-09T08:52:54.747Z,172.44
2024-04-09T08:53:54.632Z,173.89
2024-04-09T08:54:54.697Z,178.69
2024-04-09T08:55:54.678Z,180.80
2024-04-09T08:56:54.651Z,182.74
2024-04-09T08:57:54.647Z,184.13
2024-04-09T08:58:54.672Z,185.75
2024-04-09T08:59:54.660Z,186.46
2024-04-09T09:00:54.923Z,187.15
2024-04-09T09:01:54.667Z,188.86
2024-04-09T09:02:54.726Z,189.25
2024-04-09T09:03:54.755Z,190.76
2024-04-09T09:04:54.691Z,190.14
2024-04-09T09:05:54.656Z,189.89
2024-04-09T09:06:54.660Z,190.04
2024-04-09T09:07:54.676Z,190.78
2024-04-09T09:08:54.683Z,192.20
2024-04-09T09:09:54.750Z,192.02
2024-04-09T09:10:54.847Z,192.66
2024-04-09T09:11:54.926Z,192.42
2024-04-09T09:12:54.992Z,192.20
2024-04-09T09:13:55.099Z,190.46
2024-04-09T09:14:55.190Z,189.82
2024-04-09T09:15:55.306Z,188.53
2024-04-09T09:16:55.467Z,187.76
2024-04-09T09:17:55.507Z,188.37
2024-04-09T09:18:55.617Z,187.64
2024-04-09T09:19:55.628Z,185.55
2024-04-09T09:20:55.717Z,184.57
2024-04-09T09:21:55.773Z,182.80
2024-04-09T09:22:56.272Z,181.16
2024-04-09T09:23:55.967Z,180.33
2024-04-09T09:24:56.048Z,178.62
2024-04-09T09:25:56.138Z,177.08
2024-04-09T09:26:56.236Z,175.88
2024-04-09T09:27:56.308Z,173.97
2024-04-09T09:28:56.405Z,173.91
2024-04-09T09:29:56.484Z,172.80
2024-04-09T09:30:56.582Z,173.41
2024-04-09T09:31:56.736Z,171.01
2024-04-09T09:32:56.771Z,168.91
2024-04-09T09:33:56.871Z,168.28
2024-04-09T09:34:56.869Z,167.66
2024-04-09T09:35:56.963Z,168.18
2024-04-09T09:36:57.062Z,167.96
2024-04-09T09:37:58.474Z,168.43
2024-04-09T09:38:57.197Z,168.52
2024-04-09T09:39:57.311Z,164.54
2024-04-09T09:40:57.322Z,159.75
2024-04-09T09:41:57.475Z,153.68
2024-04-09T09:42:57.515Z,149.66
2024-04-09T09:43:59.417Z,142.19
2024-04-09T09:44:57.583Z,134.89
2024-04-09T09:45:57.650Z,136.62
2024-04-09T09:46:57.652Z,136.79
2024-04-09T09:47:57.806Z,136.07
2024-04-09T09:48:57.703Z,136.50
2024-04-09T09:50:06.188Z,135.81
2024-04-09T09:50:58.592Z,134.32
2024-04-09T09:51:57.604Z,134.70
2024-04-09T09:52:57.607Z,133.73
2024-04-09T09:53:57.697Z,132.37
2024-04-09T09:55:00.691Z,130.52
2024-04-09T09:55:57.604Z,131.02
2024-04-09T09:56:57.610Z,130.39
2024-04-09T09:57:57.618Z,131.97
2024-04-09T09:58:57.626Z,131.53
2024-04-09T09:59:57.698Z,131.64
2024-04-09T10:00:57.744Z,131.79
2024-04-09T10:01:57.660Z,133.08
2024-04-09T10:02:57.679Z,132.34
2024-04-09T10:03:57.804Z,131.42
2024-04-09T10:04:57.695Z,130.15
2024-04-09T10:05:57.630Z,130.34
2024-04-09T10:06:58.242Z,128.30
2024-04-09T10:07:57.621Z,127.35
2024-04-09T10:08:57.668Z,126.75
2024-04-09T10:09:57.612Z,123.99
2024-04-09T10:10:57.650Z,123.12
2024-04-09T10:11:57.737Z,123.85
2024-04-09T10:12:57.707Z,125.14
2024-04-09T10:13:57.636Z,123.66
2024-04-09T10:14:57.645Z,124.75
2024-04-09T10:15:57.759Z,124.33
2024-04-09T10:16:57.655Z,123.97
2024-04-09T10:17:57.877Z,121.98
2024-04-09T10:18:57.752Z,119.98
2024-04-09T10:19:57.681Z,117.84
2024-04-09T10:20:57.678Z,116.19
2024-04-09T10:21:57.726Z,113.72
2024-04-09T10:22:57.688Z,111.98
2024-04-09T10:23:57.693Z,111.61
2024-04-09T10:24:57.654Z,112.76
2024-04-09T10:25:57.700Z,112.09
2024-04-09T10:26:57.695Z,109.91
2024-04-09T10:27:57.837Z,109.73
2024-04-09T10:28:57.936Z,108.30
2024-04-09T10:29:58.012Z,107.63
2024-04-09T10:30:58.126Z,106.06
2024-04-09T10:31:58.207Z,105.44
2024-04-09T10:32:58.565Z,103.69
2024-04-09T10:33:58.765Z,104.83
2024-04-09T10:34:58.591Z,104.81
2024-04-09T10:35:58.610Z,105.11
2024-04-09T10:36:58.756Z,106.19
2024-04-09T10:37:58.814Z,107.67
2024-04-09T10:38:58.926Z,109.98
2024-04-09T10:39:59.046Z,112.22
2024-04-09T10:40:59.107Z,116.41
2024-04-09T10:41:59.344Z,116.59
2024-04-09T10:42:59.296Z,118.46
2024-04-09T10:43:59.419Z,119.99
2024-04-09T10:44:59.617Z,121.37
2024-04-09T10:46:07.720Z,123.75
2024-04-09T10:47:00.632Z,123.84
2024-04-09T10:47:59.692Z,124.17
2024-04-09T10:48:59.712Z,124.72
2024-04-09T10:49:59.563Z,127.62
2024-04-09T10:50:59.618Z,130.56
2024-04-09T10:51:59.610Z,131.93
2024-04-09T10:52:59.601Z,127.52
2024-04-09T10:53:59.652Z,127.95
2024-04-09T10:54:59.636Z,128.40
2024-04-09T10:55:59.620Z,129.07
2024-04-09T10:56:59.736Z,130.89
2024-04-09T10:57:59.652Z,132.57
2024-04-09T10:58:59.721Z,130.53
2024-04-09T10:59:59.897Z,125.82
2024-04-09T11:01:00.121Z,129.41
2024-04-09T11:02:00.045Z,130.21
2024-04-09T11:03:00.282Z,131.44
2024-04-09T11:04:00.340Z,128.30
2024-04-09T11:05:00.499Z,122.82
2024-04-09T11:06:00.513Z,121.75
2024-04-09T11:07:00.464Z,120.47
2024-04-09T11:08:00.509Z,116.87
2024-04-09T11:09:00.834Z,117.08
2024-04-09T11:10:00.711Z,119.54
2024-04-09T11:11:00.751Z,122.05
2024-04-09T11:12:01.156Z,121.69
2024-04-09T11:13:00.796Z,122.06
2024-04-09T11:14:00.855Z,122.71
2024-04-09T11:16:05.211Z,50.00
2024-04-09T11:17:05.266Z,50.00
2024-04-09T11:18:05.445Z,50.00
2024-04-09T11:19:05.484Z,50.00
2024-04-09T11:20:05.370Z,50.00
2024-04-09T11:21:05.480Z,54.04
2024-04-09T11:22:05.505Z,62.70
2024-04-09T11:23:05.574Z,65.13
2024-04-09T11:24:05.792Z,74.18
2024-04-09T11:25:05.750Z,76.58
2024-04-09T11:26:05.848Z,72.67
2024-04-09T11:27:05.941Z,86.73
2024-04-09T11:28:05.977Z,83.68
2024-04-09T11:29:06.044Z,90.22
2024-04-09T11:30:06.166Z,108.36
2024-04-09T11:31:06.173Z,109.46
2024-04-09T11:32:06.264Z,111.90
2024-04-09T11:33:06.612Z,114.07
2024-04-09T11:34:06.684Z,100.95
2024-04-09T11:35:06.664Z,97.54
2024-04-09T11:36:13.716Z,94.39
2024-04-09T11:37:07.739Z,91.55
2024-04-09T11:38:06.672Z,92.85
2024-04-09T11:39:06.719Z,94.26
2024-04-09T11:40:06.702Z,94.03
2024-04-09T11:41:06.696Z,97.40
2024-04-09T11:42:06.763Z,100.66
2024-04-09T11:43:06.720Z,106.90
2024-04-09T11:44:06.729Z,111.47
2024-04-09T11:45:06.781Z,112.60
2024-04-09T11:46:06.703Z,120.09
2024-04-09T11:47:06.737Z,120.76
2024-04-09T11:48:06.825Z,120.28
2024-04-09T11:49:06.902Z,120.94
2024-04-09T11:50:06.948Z,123.15
2024-04-09T11:51:07.123Z,130.33
2024-04-09T11:52:07.155Z,134.84
2024-04-09T11:53:07.242Z,139.70
2024-04-09T11:54:07.405Z,143.21
2024-04-09T11:55:09.232Z,150.83
2024-04-09T11:56:07.441Z,157.16
2024-04-09T11:57:07.462Z,162.50
2024-04-09T11:58:07.443Z,168.79
2024-04-09T11:59:07.496Z,173.98
2024-04-09T12:00:07.557Z,182.05
2024-04-09T12:01:07.564Z,189.43
2024-04-09T12:02:07.483Z,195.75
2024-04-09T12:03:07.603Z,200.00
2024-04-09T12:04:07.693Z,200.00
2024-04-09T12:05:07.663Z,200.00
2024-04-09T12:06:07.607Z,199.48
2024-04-09T12:07:07.523Z,200.00
2024-04-09T12:08:07.573Z,198.53
2024-04-09T12:09:07.560Z,198.77
2024-04-09T12:10:07.497Z,197.16
2024-04-09T12:11:07.638Z,193.83
2024-04-09T12:12:07.518Z,188.07
2024-04-09T12:13:07.500Z,184.93
2024-04-09T12:14:07.505Z,183.09
2024-04-09T12:15:07.650Z,182.63
2024-04-09T12:16:07.519Z,180.07
2024-04-09T12:17:07.564Z,177.23
2024-04-09T12:18:07.853Z,178.85
2024-04-09T12:19:07.736Z,176.05
2024-04-09T12:20:07.591Z,171.42
2024-04-09T12:21:07.604Z,168.68
2024-04-09T12:22:07.597Z,169.60
2024-04-09T12:23:07.623Z,175.12
2024-04-09T12:24:07.631Z,177.60
2024-04-09T12:25:07.619Z,181.46
2024-04-09T12:26:07.583Z,193.07
2024-04-09T12:27:07.630Z,197.43
2024-04-09T12:28:07.604Z,200.36
2024-04-09T12:29:07.567Z,196.22
2024-04-09T12:30:07.643Z,195.82
2024-04-09T12:31:07.565Z,196.90
2024-04-09T12:32:07.623Z,198.71
2024-04-09T12:33:07.789Z,199.39
2024-04-09T12:34:07.827Z,200.00
2024-04-09T12:35:07.901Z,200.00
2024-04-09T12:36:07.868Z,198.63
2024-04-09T12:37:07.902Z,200.00